Accueil
METAR-TAF:

METAR-TAF

Aéroports :

Cranwell, Angleterre

latitude: 53-02N, longitude: 000-30W, altitude: 67 m

Observation

Le bulletin a été fait il y a 1 heure et 5 minutes, à 19:50 UTC
Vent 6 kt de sud-est
Température 5°C
Humidité 93%
Pression 1005 hPa
Visibilité 10 km ou plus

METAR: EGYD 161950Z AUTO 14006KT 9999 // FEW015/// BKN045/// 05/04 Q1005

Heure: 20:55 (20:55 UTC)

Prévision

Le bulletin a été fait il y a 7 heures et 17 minutes, à 13:38 UTC
Prévision valable du 16 à 15 UTC au 16 à 18 UTC
Vent 8 kt de sud/sud-est
Visibilité 10 km ou plus
pas de nuages en-dessous de 1500 mètres et pas de cumulonimbus.
Probabilité 40%
du 16 à 16 UTC au 16 à 18 UTC
Visibilité: 3000 m
Nuages fragmentés à une hauteur de 400 ft
brume

TAF: EGYD 161338Z 1615/1618 15008KT CAVOK PROB40 1616/1618 3000 BR BKN004

Observations et prévisions météorologiques de plus de 4000 aéroports (messages METAR et TAF).

Les stations disponibles sont représentées par des disques jaunes et rouges sur la carte.

Passer la souris dessus pour voir le nom de la station.

Cliquer dessus pour voir les observations et prévisions météorologiques.

Pour changer de carte: cliquez sur les boutons verts avec une croix noire pour zoomer, sur le bouton vert avec un tiret pour effectuer un zoom arrière, ou sur les flèches vertes pour les cartes adjacentes.


METAR-TAF: